sensor_id;sensor_type;location;lat;lon;timestamp;temperature;humidity
24668;DHT22;12793;48.014;0.232;2022-08-30T00:02:33;24.60;42.60
24668;DHT22;12793;48.014;0.232;2022-08-30T00:04:59;24.50;43.30
24668;DHT22;12793;48.014;0.232;2022-08-30T00:07:26;24.50;42.70
24668;DHT22;12793;48.014;0.232;2022-08-30T00:09:52;24.50;42.80
24668;DHT22;12793;48.014;0.232;2022-08-30T00:12:18;24.40;42.80
24668;DHT22;12793;48.014;0.232;2022-08-30T00:14:46;24.40;42.80
24668;DHT22;12793;48.014;0.232;2022-08-30T00:17:12;24.40;42.90
24668;DHT22;12793;48.014;0.232;2022-08-30T00:19:40;24.40;43.00
24668;DHT22;12793;48.014;0.232;2022-08-30T00:22:06;24.40;43.00
24668;DHT22;12793;48.014;0.232;2022-08-30T00:24:34;24.40;42.90
24668;DHT22;12793;48.014;0.232;2022-08-30T00:27:00;24.30;42.80
24668;DHT22;12793;48.014;0.232;2022-08-30T00:29:25;24.30;42.80
24668;DHT22;12793;48.014;0.232;2022-08-30T00:31:52;24.30;42.80
24668;DHT22;12793;48.014;0.232;2022-08-30T00:34:18;24.30;42.70
24668;DHT22;12793;48.014;0.232;2022-08-30T00:36:44;24.20;42.80
24668;DHT22;12793;48.014;0.232;2022-08-30T00:39:10;24.20;42.80
24668;DHT22;12793;48.014;0.232;2022-08-30T00:41:36;24.20;42.80
24668;DHT22;12793;48.014;0.232;2022-08-30T00:44:02;24.10;42.80
24668;DHT22;12793;48.014;0.232;2022-08-30T00:46:28;24.10;42.90
24668;DHT22;12793;48.014;0.232;2022-08-30T00:48:54;24.00;42.90
24668;DHT22;12793;48.014;0.232;2022-08-30T00:51:21;24.00;43.00
24668;DHT22;12793;48.014;0.232;2022-08-30T00:53:53;24.00;43.00
24668;DHT22;12793;48.014;0.232;2022-08-30T00:56:24;24.00;43.10
24668;DHT22;12793;48.014;0.232;2022-08-30T00:58:53;24.00;43.10
24668;DHT22;12793;48.014;0.232;2022-08-30T01:01:20;24.00;43.10
24668;DHT22;12793;48.014;0.232;2022-08-30T01:03:47;24.00;43.00
24668;DHT22;12793;48.014;0.232;2022-08-30T01:06:13;24.00;43.00
24668;DHT22;12793;48.014;0.232;2022-08-30T01:08:41;24.00;43.00
24668;DHT22;12793;48.014;0.232;2022-08-30T01:11:07;23.90;42.90
24668;DHT22;12793;48.014;0.232;2022-08-30T01:13:33;23.80;42.90
24668;DHT22;12793;48.014;0.232;2022-08-30T01:16:00;23.80;43.00
24668;DHT22;12793;48.014;0.232;2022-08-30T01:18:27;23.80;43.00
24668;DHT22;12793;48.014;0.232;2022-08-30T01:23:30;23.60;43.10
24668;DHT22;12793;48.014;0.232;2022-08-30T01:25:56;23.60;43.20
24668;DHT22;12793;48.014;0.232;2022-08-30T01:28:24;23.50;43.30
24668;DHT22;12793;48.014;0.232;2022-08-30T01:30:51;23.50;43.40
24668;DHT22;12793;48.014;0.232;2022-08-30T01:33:18;23.40;43.40
24668;DHT22;12793;48.014;0.232;2022-08-30T01:36:07;23.30;43.50
24668;DHT22;12793;48.014;0.232;2022-08-30T01:43:49;23.30;43.70
24668;DHT22;12793;48.014;0.232;2022-08-30T01:46:17;23.20;43.70
24668;DHT22;12793;48.014;0.232;2022-08-30T01:48:45;23.20;43.80
24668;DHT22;12793;48.014;0.232;2022-08-30T01:51:12;23.20;43.80
24668;DHT22;12793;48.014;0.232;2022-08-30T01:53:40;23.10;43.80
24668;DHT22;12793;48.014;0.232;2022-08-30T01:56:07;23.10;43.90
24668;DHT22;12793;48.014;0.232;2022-08-30T01:58:36;23.10;43.90
24668;DHT22;12793;48.014;0.232;2022-08-30T02:01:04;23.10;44.00
24668;DHT22;12793;48.014;0.232;2022-08-30T02:03:31;23.10;43.90
24668;DHT22;12793;48.014;0.232;2022-08-30T02:06:08;23.00;43.90
24668;DHT22;12793;48.014;0.232;2022-08-30T02:08:35;23.00;43.90
24668;DHT22;12793;48.014;0.232;2022-08-30T02:11:00;23.00;43.90
24668;DHT22;12793;48.014;0.232;2022-08-30T02:13:26;23.00;44.00
24668;DHT22;12793;48.014;0.232;2022-08-30T02:15:52;23.00;44.10
24668;DHT22;12793;48.014;0.232;2022-08-30T02:18:23;23.00;44.60
24668;DHT22;12793;48.014;0.232;2022-08-30T02:20:50;22.90;44.10
24668;DHT22;12793;48.014;0.232;2022-08-30T02:23:16;22.90;44.10
24668;DHT22;12793;48.014;0.232;2022-08-30T02:25:42;22.90;44.20
24668;DHT22;12793;48.014;0.232;2022-08-30T02:28:08;22.80;44.10
24668;DHT22;12793;48.014;0.232;2022-08-30T02:30:35;22.80;44.20
24668;DHT22;12793;48.014;0.232;2022-08-30T02:33:01;22.80;44.30
24668;DHT22;12793;48.014;0.232;2022-08-30T02:35:26;22.80;44.30
24668;DHT22;12793;48.014;0.232;2022-08-30T02:37:52;22.80;44.30
24668;DHT22;12793;48.014;0.232;2022-08-30T02:40:18;22.70;44.30
24668;DHT22;12793;48.014;0.232;2022-08-30T02:42:47;22.70;44.30
24668;DHT22;12793;48.014;0.232;2022-08-30T02:45:14;22.70;44.30
24668;DHT22;12793;48.014;0.232;2022-08-30T02:47:41;22.70;44.30
24668;DHT22;12793;48.014;0.232;2022-08-30T02:50:08;22.70;44.40
24668;DHT22;12793;48.014;0.232;2022-08-30T02:52:35;22.60;44.40
24668;DHT22;12793;48.014;0.232;2022-08-30T02:55:03;22.60;44.50
24668;DHT22;12793;48.014;0.232;2022-08-30T02:57:28;22.60;44.50
24668;DHT22;12793;48.014;0.232;2022-08-30T02:59:54;22.50;44.60
24668;DHT22;12793;48.014;0.232;2022-08-30T03:02:20;22.40;44.60
24668;DHT22;12793;48.014;0.232;2022-08-30T03:04:47;22.40;44.60
24668;DHT22;12793;48.014;0.232;2022-08-30T03:07:14;22.40;44.70
24668;DHT22;12793;48.014;0.232;2022-08-30T03:09:41;22.40;44.80
24668;DHT22;12793;48.014;0.232;2022-08-30T03:12:07;22.40;44.80
24668;DHT22;12793;48.014;0.232;2022-08-30T03:14:35;22.40;44.80
24668;DHT22;12793;48.014;0.232;2022-08-30T03:17:06;22.40;44.80
24668;DHT22;12793;48.014;0.232;2022-08-30T03:19:33;22.40;44.80
24668;DHT22;12793;48.014;0.232;2022-08-30T03:22:02;22.40;44.80
24668;DHT22;12793;48.014;0.232;2022-08-30T03:24:28;22.40;44.70
24668;DHT22;12793;48.014;0.232;2022-08-30T03:26:53;22.40;44.80
24668;DHT22;12793;48.014;0.232;2022-08-30T03:29:19;22.40;44.80
24668;DHT22;12793;48.014;0.232;2022-08-30T03:31:45;22.30;44.80
24668;DHT22;12793;48.014;0.232;2022-08-30T03:34:11;22.30;44.90
24668;DHT22;12793;48.014;0.232;2022-08-30T03:36:37;22.30;44.90
24668;DHT22;12793;48.014;0.232;2022-08-30T03:39:07;22.30;44.90
24668;DHT22;12793;48.014;0.232;2022-08-30T03:41:33;22.30;44.90
24668;DHT22;12793;48.014;0.232;2022-08-30T03:44:00;22.30;45.00
24668;DHT22;12793;48.014;0.232;2022-08-30T03:46:27;22.20;45.00
24668;DHT22;12793;48.014;0.232;2022-08-30T03:48:53;22.20;45.00
24668;DHT22;12793;48.014;0.232;2022-08-30T03:51:24;22.20;45.10
24668;DHT22;12793;48.014;0.232;2022-08-30T03:53:50;22.20;45.10
24668;DHT22;12793;48.014;0.232;2022-08-30T03:56:17;22.20;45.10
24668;DHT22;12793;48.014;0.232;2022-08-30T03:58:43;22.20;45.10
24668;DHT22;12793;48.014;0.232;2022-08-30T04:01:09;22.20;45.10
24668;DHT22;12793;48.014;0.232;2022-08-30T04:03:35;22.10;45.10
24668;DHT22;12793;48.014;0.232;2022-08-30T04:06:02;22.10;45.20
24668;DHT22;12793;48.014;0.232;2022-08-30T04:08:28;22.10;45.20
24668;DHT22;12793;48.014;0.232;2022-08-30T04:10:53;22.10;45.30
24668;DHT22;12793;48.014;0.232;2022-08-30T04:13:21;22.00;45.30
24668;DHT22;12793;48.014;0.232;2022-08-30T04:15:47;22.00;45.50
24668;DHT22;12793;48.014;0.232;2022-08-30T04:18:13;21.90;45.40
24668;DHT22;12793;48.014;0.232;2022-08-30T04:20:39;21.90;45.50
24668;DHT22;12793;48.014;0.232;2022-08-30T04:23:05;21.80;45.50
24668;DHT22;12793;48.014;0.232;2022-08-30T04:25:34;21.80;45.50
24668;DHT22;12793;48.014;0.232;2022-08-30T04:28:01;21.70;45.50
24668;DHT22;12793;48.014;0.232;2022-08-30T04:30:27;21.70;45.60
24668;DHT22;12793;48.014;0.232;2022-08-30T04:32:53;21.70;45.70
24668;DHT22;12793;48.014;0.232;2022-08-30T04:35:19;21.60;45.70
24668;DHT22;12793;48.014;0.232;2022-08-30T04:37:44;21.60;45.70
24668;DHT22;12793;48.014;0.232;2022-08-30T04:40:10;21.60;45.70
24668;DHT22;12793;48.014;0.232;2022-08-30T04:42:36;21.50;45.80
24668;DHT22;12793;48.014;0.232;2022-08-30T04:45:07;21.40;45.90
24668;DHT22;12793;48.014;0.232;2022-08-30T04:47:34;21.40;45.90
24668;DHT22;12793;48.014;0.232;2022-08-30T04:50:00;21.40;46.00
24668;DHT22;12793;48.014;0.232;2022-08-30T04:52:25;21.30;46.00
24668;DHT22;12793;48.014;0.232;2022-08-30T04:54:54;21.30;46.00
24668;DHT22;12793;48.014;0.232;2022-08-30T04:57:21;21.30;46.10
24668;DHT22;12793;48.014;0.232;2022-08-30T04:59:47;21.20;46.10
24668;DHT22;12793;48.014;0.232;2022-08-30T05:02:13;21.20;46.10
24668;DHT22;12793;48.014;0.232;2022-08-30T05:04:38;21.20;46.10
24668;DHT22;12793;48.014;0.232;2022-08-30T05:07:27;21.10;46.20
24668;DHT22;12793;48.014;0.232;2022-08-30T05:09:53;21.10;46.30
24668;DHT22;12793;48.014;0.232;2022-08-30T05:12:19;21.00;46.30
24668;DHT22;12793;48.014;0.232;2022-08-30T05:14:44;21.10;46.40
24668;DHT22;12793;48.014;0.232;2022-08-30T05:17:10;21.10;46.50
24668;DHT22;12793;48.014;0.232;2022-08-30T05:19:36;21.10;46.40
24668;DHT22;12793;48.014;0.232;2022-08-30T05:22:02;21.10;46.40
24668;DHT22;12793;48.014;0.232;2022-08-30T05:24:28;21.10;46.40
24668;DHT22;12793;48.014;0.232;2022-08-30T05:26:53;21.10;46.40
24668;DHT22;12793;48.014;0.232;2022-08-30T05:29:19;21.10;46.40
24668;DHT22;12793;48.014;0.232;2022-08-30T05:31:45;21.10;46.40
24668;DHT22;12793;48.014;0.232;2022-08-30T05:34:11;21.10;46.50
24668;DHT22;12793;48.014;0.232;2022-08-30T05:36:37;21.20;46.50
24668;DHT22;12793;48.014;0.232;2022-08-30T05:39:07;21.20;46.50
24668;DHT22;12793;48.014;0.232;2022-08-30T05:41:33;21.20;46.40
24668;DHT22;12793;48.014;0.232;2022-08-30T05:44:00;21.20;46.40
24668;DHT22;12793;48.014;0.232;2022-08-30T05:46:27;21.10;46.30
24668;DHT22;12793;48.014;0.232;2022-08-30T05:48:57;21.10;46.30
24668;DHT22;12793;48.014;0.232;2022-08-30T05:51:25;21.10;46.50
24668;DHT22;12793;48.014;0.232;2022-08-30T05:53:54;21.00;46.50
24668;DHT22;12793;48.014;0.232;2022-08-30T05:56:23;21.00;46.60
24668;DHT22;12793;48.014;0.232;2022-08-30T05:58:49;21.00;46.60
24668;DHT22;12793;48.014;0.232;2022-08-30T06:01:27;21.00;46.60
24668;DHT22;12793;48.014;0.232;2022-08-30T06:03:55;21.00;46.70
24668;DHT22;12793;48.014;0.232;2022-08-30T06:06:22;20.90;46.70
24668;DHT22;12793;48.014;0.232;2022-08-30T06:08:49;21.00;46.80
24668;DHT22;12793;48.014;0.232;2022-08-30T06:11:17;21.00;46.80
24668;DHT22;12793;48.014;0.232;2022-08-30T06:13:44;21.00;46.80
24668;DHT22;12793;48.014;0.232;2022-08-30T06:16:16;21.00;46.80
24668;DHT22;12793;48.014;0.232;2022-08-30T06:18:42;21.00;46.80
24668;DHT22;12793;48.014;0.232;2022-08-30T06:21:15;21.00;46.90
24668;DHT22;12793;48.014;0.232;2022-08-30T06:23:41;21.00;47.00
24668;DHT22;12793;48.014;0.232;2022-08-30T06:26:07;21.00;47.00
24668;DHT22;12793;48.014;0.232;2022-08-30T06:28:33;21.00;47.00
24668;DHT22;12793;48.014;0.232;2022-08-30T06:30:59;21.00;47.00
24668;DHT22;12793;48.014;0.232;2022-08-30T06:33:25;21.10;47.10
24668;DHT22;12793;48.014;0.232;2022-08-30T06:35:51;21.10;47.00
24668;DHT22;12793;48.014;0.232;2022-08-30T06:38:17;21.10;47.00
24668;DHT22;12793;48.014;0.232;2022-08-30T06:40:42;21.10;47.00
24668;DHT22;12793;48.014;0.232;2022-08-30T06:43:08;21.20;47.00
24668;DHT22;12793;48.014;0.232;2022-08-30T06:45:34;21.20;47.00
24668;DHT22;12793;48.014;0.232;2022-08-30T06:48:01;21.20;47.00
24668;DHT22;12793;48.014;0.232;2022-08-30T06:50:27;21.30;47.00
24668;DHT22;12793;48.014;0.232;2022-08-30T06:52:53;21.30;47.00
24668;DHT22;12793;48.014;0.232;2022-08-30T06:55:19;21.30;46.90
24668;DHT22;12793;48.014;0.232;2022-08-30T06:57:45;21.30;46.90
24668;DHT22;12793;48.014;0.232;2022-08-30T07:00:14;21.30;46.90
24668;DHT22;12793;48.014;0.232;2022-08-30T07:02:40;21.40;46.90
24668;DHT22;12793;48.014;0.232;2022-08-30T07:05:07;21.40;46.90
24668;DHT22;12793;48.014;0.232;2022-08-30T07:07:35;21.40;46.90
24668;DHT22;12793;48.014;0.232;2022-08-30T07:10:03;21.50;46.90
24668;DHT22;12793;48.014;0.232;2022-08-30T07:12:30;21.50;46.80
24668;DHT22;12793;48.014;0.232;2022-08-30T07:14:55;21.60;46.80
24668;DHT22;12793;48.014;0.232;2022-08-30T07:17:22;21.70;46.70
24668;DHT22;12793;48.014;0.232;2022-08-30T07:20:07;21.70;46.90
24668;DHT22;12793;48.014;0.232;2022-08-30T07:22:33;21.70;46.60
24668;DHT22;12793;48.014;0.232;2022-08-30T07:24:59;21.80;46.70
24668;DHT22;12793;48.014;0.232;2022-08-30T07:27:24;21.90;46.70
24668;DHT22;12793;48.014;0.232;2022-08-30T07:29:51;22.00;46.60
24668;DHT22;12793;48.014;0.232;2022-08-30T07:32:17;22.10;46.60
24668;DHT22;12793;48.014;0.232;2022-08-30T07:34:42;22.20;46.50
24668;DHT22;12793;48.014;0.232;2022-08-30T07:37:08;22.30;46.40
24668;DHT22;12793;48.014;0.232;2022-08-30T07:39:34;22.30;46.30
24668;DHT22;12793;48.014;0.232;2022-08-30T07:41:59;22.40;46.30
24668;DHT22;12793;48.014;0.232;2022-08-30T07:44:25;22.40;46.30
24668;DHT22;12793;48.014;0.232;2022-08-30T07:46:52;22.50;46.20
24668;DHT22;12793;48.014;0.232;2022-08-30T07:49:17;22.60;46.20
24668;DHT22;12793;48.014;0.232;2022-08-30T07:51:45;22.70;46.10
24668;DHT22;12793;48.014;0.232;2022-08-30T07:54:11;22.70;45.90
24668;DHT22;12793;48.014;0.232;2022-08-30T07:56:37;22.80;45.80
24668;DHT22;12793;48.014;0.232;2022-08-30T07:59:03;22.90;45.80
24668;DHT22;12793;48.014;0.232;2022-08-30T08:01:29;23.10;45.70
24668;DHT22;12793;48.014;0.232;2022-08-30T08:03:56;23.10;45.70
24668;DHT22;12793;48.014;0.232;2022-08-30T08:06:23;23.30;45.60
24668;DHT22;12793;48.014;0.232;2022-08-30T08:08:49;23.30;45.50
24668;DHT22;12793;48.014;0.232;2022-08-30T08:11:20;23.40;45.30
24668;DHT22;12793;48.014;0.232;2022-08-30T08:13:48;23.40;45.20
24668;DHT22;12793;48.014;0.232;2022-08-30T08:16:14;23.50;45.20
24668;DHT22;12793;48.014;0.232;2022-08-30T08:18:40;23.50;45.20
24668;DHT22;12793;48.014;0.232;2022-08-30T08:21:06;23.60;45.20
24668;DHT22;12793;48.014;0.232;2022-08-30T08:23:32;23.80;45.10
24668;DHT22;12793;48.014;0.232;2022-08-30T08:25:58;23.90;44.90
24668;DHT22;12793;48.014;0.232;2022-08-30T08:28:23;24.00;44.90
24668;DHT22;12793;48.014;0.232;2022-08-30T08:30:49;24.20;44.80
24668;DHT22;12793;48.014;0.232;2022-08-30T08:33:16;24.30;44.70
24668;DHT22;12793;48.014;0.232;2022-08-30T08:35:42;24.40;44.60
24668;DHT22;12793;48.014;0.232;2022-08-30T08:38:08;24.50;45.50
24668;DHT22;12793;48.014;0.232;2022-08-30T08:40:54;24.60;45.10
24668;DHT22;12793;48.014;0.232;2022-08-30T08:43:25;24.70;44.60
24668;DHT22;12793;48.014;0.232;2022-08-30T08:46:00;24.80;44.30
24668;DHT22;12793;48.014;0.232;2022-08-30T08:51:11;25.00;44.50
24668;DHT22;12793;48.014;0.232;2022-08-30T08:54:04;25.10;43.80
24668;DHT22;12793;48.014;0.232;2022-08-30T08:56:31;25.20;43.70
24668;DHT22;12793;48.014;0.232;2022-08-30T08:58:57;25.20;43.50
24668;DHT22;12793;48.014;0.232;2022-08-30T09:01:25;25.20;43.50
24668;DHT22;12793;48.014;0.232;2022-08-30T09:03:52;25.20;43.50
24668;DHT22;12793;48.014;0.232;2022-08-30T09:09:34;25.30;43.40
24668;DHT22;12793;48.014;0.232;2022-08-30T09:12:00;25.30;43.40
24668;DHT22;12793;48.014;0.232;2022-08-30T09:14:37;25.30;43.40
24668;DHT22;12793;48.014;0.232;2022-08-30T09:17:04;25.30;43.40
24668;DHT22;12793;48.014;0.232;2022-08-30T09:27:49;25.30;43.50
24668;DHT22;12793;48.014;0.232;2022-08-30T09:32:59;25.30;43.80
24668;DHT22;12793;48.014;0.232;2022-08-30T09:35:36;25.40;43.80
24668;DHT22;12793;48.014;0.232;2022-08-30T09:38:08;25.50;43.80
24668;DHT22;12793;48.014;0.232;2022-08-30T09:43:06;25.60;43.60
24668;DHT22;12793;48.014;0.232;2022-08-30T09:45:36;25.70;43.60
24668;DHT22;12793;48.014;0.232;2022-08-30T09:56:54;26.20;43.40
24668;DHT22;12793;48.014;0.232;2022-08-30T09:59:36;26.40;43.50
24668;DHT22;12793;48.014;0.232;2022-08-30T10:08:07;27.10;43.20
24668;DHT22;12793;48.014;0.232;2022-08-30T10:10:51;27.30;42.80
24668;DHT22;12793;48.014;0.232;2022-08-30T10:13:41;27.40;42.70
24668;DHT22;12793;48.014;0.232;2022-08-30T10:16:26;27.70;42.50
24668;DHT22;12793;48.014;0.232;2022-08-30T10:21:27;28.10;42.20
24668;DHT22;12793;48.014;0.232;2022-08-30T10:29:05;29.00;41.50
24668;DHT22;12793;48.014;0.232;2022-08-30T10:34:29;29.60;40.80
24668;DHT22;12793;48.014;0.232;2022-08-30T10:37:00;30.00;40.80
24668;DHT22;12793;48.014;0.232;2022-08-30T10:39:33;30.40;40.50
24668;DHT22;12793;48.014;0.232;2022-08-30T10:42:23;30.80;40.10
24668;DHT22;12793;48.014;0.232;2022-08-30T10:45:16;31.10;39.60
24668;DHT22;12793;48.014;0.232;2022-08-30T10:50:34;31.70;38.60
24668;DHT22;12793;48.014;0.232;2022-08-30T10:53:12;31.90;38.50
24668;DHT22;12793;48.014;0.232;2022-08-30T10:56:00;32.30;38.40
24668;DHT22;12793;48.014;0.232;2022-08-30T10:58:27;32.70;37.90
24668;DHT22;12793;48.014;0.232;2022-08-30T11:13:50;35.20;36.00
24668;DHT22;12793;48.014;0.232;2022-08-30T11:16:17;35.50;35.10
24668;DHT22;12793;48.014;0.232;2022-08-30T11:18:50;35.90;34.70
24668;DHT22;12793;48.014;0.232;2022-08-30T11:21:35;36.20;34.80
24668;DHT22;12793;48.014;0.232;2022-08-30T11:29:42;37.40;33.40
24668;DHT22;12793;48.014;0.232;2022-08-30T12:00:40;40.70;29.90
24668;DHT22;12793;48.014;0.232;2022-08-30T12:05:49;40.80;29.70
24668;DHT22;12793;48.014;0.232;2022-08-30T12:10:50;41.20;29.80
24668;DHT22;12793;48.014;0.232;2022-08-30T12:16:11;42.10;29.60
24668;DHT22;12793;48.014;0.232;2022-08-30T12:21:24;42.60;28.80
24668;DHT22;12793;48.014;0.232;2022-08-30T12:29:05;43.20;28.40
24668;DHT22;12793;48.014;0.232;2022-08-30T12:31:31;43.40;28.30
24668;DHT22;12793;48.014;0.232;2022-08-30T12:34:00;43.60;28.20
24668;DHT22;12793;48.014;0.232;2022-08-30T12:39:28;44.10;27.80
24668;DHT22;12793;48.014;0.232;2022-08-30T12:41:52;44.20;27.70
24668;DHT22;12793;48.014;0.232;2022-08-30T12:44:24;44.30;28.00
24668;DHT22;12793;48.014;0.232;2022-08-30T12:46:57;44.50;27.20
24668;DHT22;12793;48.014;0.232;2022-08-30T12:49:26;44.50;27.20
24668;DHT22;12793;48.014;0.232;2022-08-30T12:51:53;44.50;27.50
24668;DHT22;12793;48.014;0.232;2022-08-30T12:54:23;44.40;27.10
24668;DHT22;12793;48.014;0.232;2022-08-30T12:59:56;44.20;27.10
24668;DHT22;12793;48.014;0.232;2022-08-30T13:02:26;44.10;27.10
24668;DHT22;12793;48.014;0.232;2022-08-30T13:04:54;44.10;27.10
24668;DHT22;12793;48.014;0.232;2022-08-30T13:09:50;44.10;26.90
24668;DHT22;12793;48.014;0.232;2022-08-30T13:12:25;44.00;26.90
24668;DHT22;12793;48.014;0.232;2022-08-30T13:14:52;43.70;26.90
24668;DHT22;12793;48.014;0.232;2022-08-30T13:17:33;43.50;27.00
24668;DHT22;12793;48.014;0.232;2022-08-30T13:20:25;43.40;27.20
24668;DHT22;12793;48.014;0.232;2022-08-30T13:23:08;43.40;27.40
24668;DHT22;12793;48.014;0.232;2022-08-30T13:25:36;43.50;27.30
24668;DHT22;12793;48.014;0.232;2022-08-30T13:28:04;43.50;27.10
24668;DHT22;12793;48.014;0.232;2022-08-30T13:30:31;43.50;27.20
24668;DHT22;12793;48.014;0.232;2022-08-30T13:32:58;43.60;27.20
24668;DHT22;12793;48.014;0.232;2022-08-30T13:35:26;43.70;27.20
24668;DHT22;12793;48.014;0.232;2022-08-30T13:37:53;43.90;27.10
24668;DHT22;12793;48.014;0.232;2022-08-30T13:40:21;44.10;27.00
24668;DHT22;12793;48.014;0.232;2022-08-30T13:42:48;44.30;26.90
24668;DHT22;12793;48.014;0.232;2022-08-30T13:45:15;44.50;26.70
24668;DHT22;12793;48.014;0.232;2022-08-30T13:47:42;44.70;26.60
24668;DHT22;12793;48.014;0.232;2022-08-30T13:50:09;44.80;26.50
24668;DHT22;12793;48.014;0.232;2022-08-30T13:52:34;44.90;26.50
24668;DHT22;12793;48.014;0.232;2022-08-30T13:55:00;45.00;26.60
24668;DHT22;12793;48.014;0.232;2022-08-30T13:57:28;45.10;26.40
24668;DHT22;12793;48.014;0.232;2022-08-30T13:59:54;45.20;26.40
24668;DHT22;12793;48.014;0.232;2022-08-30T14:02:22;45.30;26.40
24668;DHT22;12793;48.014;0.232;2022-08-30T14:04:48;45.40;26.30
24668;DHT22;12793;48.014;0.232;2022-08-30T14:07:13;45.40;26.20
24668;DHT22;12793;48.014;0.232;2022-08-30T14:09:39;45.40;26.20
24668;DHT22;12793;48.014;0.232;2022-08-30T14:12:05;45.50;26.60
24668;DHT22;12793;48.014;0.232;2022-08-30T14:14:31;45.50;26.00
24668;DHT22;12793;48.014;0.232;2022-08-30T14:16:56;45.40;26.00
24668;DHT22;12793;48.014;0.232;2022-08-30T14:19:22;45.20;26.00
24668;DHT22;12793;48.014;0.232;2022-08-30T14:21:48;45.10;25.90
24668;DHT22;12793;48.014;0.232;2022-08-30T14:24:15;45.00;25.90
24668;DHT22;12793;48.014;0.232;2022-08-30T14:26:46;45.00;26.00
24668;DHT22;12793;48.014;0.232;2022-08-30T14:29:15;45.10;26.00
24668;DHT22;12793;48.014;0.232;2022-08-30T14:31:42;45.10;26.10
24668;DHT22;12793;48.014;0.232;2022-08-30T14:34:09;45.00;26.10
24668;DHT22;12793;48.014;0.232;2022-08-30T14:36:37;45.00;26.20
24668;DHT22;12793;48.014;0.232;2022-08-30T14:39:05;44.80;26.10
24668;DHT22;12793;48.014;0.232;2022-08-30T14:41:31;44.80;26.00
24668;DHT22;12793;48.014;0.232;2022-08-30T14:43:57;44.70;26.20
24668;DHT22;12793;48.014;0.232;2022-08-30T14:46:23;44.60;26.10
24668;DHT22;12793;48.014;0.232;2022-08-30T14:48:58;44.50;26.20
24668;DHT22;12793;48.014;0.232;2022-08-30T14:51:24;44.40;26.20
24668;DHT22;12793;48.014;0.232;2022-08-30T14:53:53;44.30;26.20
24668;DHT22;12793;48.014;0.232;2022-08-30T14:56:21;44.30;26.20
24668;DHT22;12793;48.014;0.232;2022-08-30T14:58:53;44.30;26.30
24668;DHT22;12793;48.014;0.232;2022-08-30T15:01:19;44.40;26.40
24668;DHT22;12793;48.014;0.232;2022-08-30T15:03:47;44.40;26.20
24668;DHT22;12793;48.014;0.232;2022-08-30T15:06:13;44.30;26.30
24668;DHT22;12793;48.014;0.232;2022-08-30T15:08:39;44.30;26.20
24668;DHT22;12793;48.014;0.232;2022-08-30T15:11:11;44.30;26.20
24668;DHT22;12793;48.014;0.232;2022-08-30T15:13:37;44.20;26.70
24668;DHT22;12793;48.014;0.232;2022-08-30T15:16:15;44.20;26.30
24668;DHT22;12793;48.014;0.232;2022-08-30T15:18:42;44.20;26.30
24668;DHT22;12793;48.014;0.232;2022-08-30T15:21:09;44.10;26.30
24668;DHT22;12793;48.014;0.232;2022-08-30T15:23:35;44.00;26.30
24668;DHT22;12793;48.014;0.232;2022-08-30T15:26:01;43.90;26.30
24668;DHT22;12793;48.014;0.232;2022-08-30T15:28:27;43.50;26.40
24668;DHT22;12793;48.014;0.232;2022-08-30T15:30:53;43.20;26.70
24668;DHT22;12793;48.014;0.232;2022-08-30T15:33:22;43.00;26.90
24668;DHT22;12793;48.014;0.232;2022-08-30T15:35:48;42.90;26.90
24668;DHT22;12793;48.014;0.232;2022-08-30T15:38:15;42.70;26.90
24668;DHT22;12793;48.014;0.232;2022-08-30T15:40:41;42.70;27.20
24668;DHT22;12793;48.014;0.232;2022-08-30T15:43:07;42.70;27.20
24668;DHT22;12793;48.014;0.232;2022-08-30T15:45:33;42.70;27.10
24668;DHT22;12793;48.014;0.232;2022-08-30T15:47:59;42.70;27.20
24668;DHT22;12793;48.014;0.232;2022-08-30T15:50:25;42.50;27.10
24668;DHT22;12793;48.014;0.232;2022-08-30T15:52:51;42.30;27.30
24668;DHT22;12793;48.014;0.232;2022-08-30T15:55:17;42.20;27.40
24668;DHT22;12793;48.014;0.232;2022-08-30T15:57:43;42.20;27.50
24668;DHT22;12793;48.014;0.232;2022-08-30T16:00:09;42.20;27.50
24668;DHT22;12793;48.014;0.232;2022-08-30T16:02:36;42.30;27.40
24668;DHT22;12793;48.014;0.232;2022-08-30T16:05:02;42.30;27.40
24668;DHT22;12793;48.014;0.232;2022-08-30T16:07:31;42.30;27.30
24668;DHT22;12793;48.014;0.232;2022-08-30T16:09:57;42.20;27.40
24668;DHT22;12793;48.014;0.232;2022-08-30T16:12:23;42.00;27.20
24668;DHT22;12793;48.014;0.232;2022-08-30T16:14:48;41.50;27.30
24668;DHT22;12793;48.014;0.232;2022-08-30T16:17:14;41.10;27.70
24668;DHT22;12793;48.014;0.232;2022-08-30T16:19:40;40.80;27.90
24668;DHT22;12793;48.014;0.232;2022-08-30T16:22:05;40.70;28.00
24668;DHT22;12793;48.014;0.232;2022-08-30T16:24:33;40.50;28.20
24668;DHT22;12793;48.014;0.232;2022-08-30T16:26:58;40.50;28.30
24668;DHT22;12793;48.014;0.232;2022-08-30T16:29:24;40.40;28.30
24668;DHT22;12793;48.014;0.232;2022-08-30T16:31:50;40.30;28.40
24668;DHT22;12793;48.014;0.232;2022-08-30T16:34:18;40.20;28.40
24668;DHT22;12793;48.014;0.232;2022-08-30T16:36:44;40.10;28.40
24668;DHT22;12793;48.014;0.232;2022-08-30T16:39:10;40.00;28.40
24668;DHT22;12793;48.014;0.232;2022-08-30T16:41:38;39.90;28.40
24668;DHT22;12793;48.014;0.232;2022-08-30T16:44:05;39.70;28.40
24668;DHT22;12793;48.014;0.232;2022-08-30T16:46:31;39.60;28.50
24668;DHT22;12793;48.014;0.232;2022-08-30T16:48:58;39.30;28.60
24668;DHT22;12793;48.014;0.232;2022-08-30T16:51:28;39.10;28.70
24668;DHT22;12793;48.014;0.232;2022-08-30T16:53:55;38.80;28.90
24668;DHT22;12793;48.014;0.232;2022-08-30T16:56:23;38.50;29.10
24668;DHT22;12793;48.014;0.232;2022-08-30T16:58:49;38.10;29.20
24668;DHT22;12793;48.014;0.232;2022-08-30T17:01:22;37.80;29.40
24668;DHT22;12793;48.014;0.232;2022-08-30T17:03:48;37.40;29.60
24668;DHT22;12793;48.014;0.232;2022-08-30T17:06:14;37.30;29.80
24668;DHT22;12793;48.014;0.232;2022-08-30T17:08:40;37.10;29.80
24668;DHT22;12793;48.014;0.232;2022-08-30T17:11:06;36.90;29.90
24668;DHT22;12793;48.014;0.232;2022-08-30T17:13:32;36.80;30.00
24668;DHT22;12793;48.014;0.232;2022-08-30T17:15:58;36.70;30.20
24668;DHT22;12793;48.014;0.232;2022-08-30T17:18:23;36.60;30.30
24668;DHT22;12793;48.014;0.232;2022-08-30T17:20:49;36.60;30.40
24668;DHT22;12793;48.014;0.232;2022-08-30T17:23:15;36.50;30.50
24668;DHT22;12793;48.014;0.232;2022-08-30T17:25:41;36.40;31.10
24668;DHT22;12793;48.014;0.232;2022-08-30T17:28:08;36.30;30.70
24668;DHT22;12793;48.014;0.232;2022-08-30T17:30:34;36.10;30.70
24668;DHT22;12793;48.014;0.232;2022-08-30T17:33:00;35.90;30.90
24668;DHT22;12793;48.014;0.232;2022-08-30T17:35:26;35.70;31.00
24668;DHT22;12793;48.014;0.232;2022-08-30T17:37:51;35.50;31.20
24668;DHT22;12793;48.014;0.232;2022-08-30T17:40:17;35.40;31.30
24668;DHT22;12793;48.014;0.232;2022-08-30T17:42:43;35.20;31.40